createdAt,value
2022-11-03T00:00:22.858Z,4.29
2022-11-03T00:01:22.680Z,4.2
2022-11-03T00:02:23.262Z,4.15
2022-11-03T00:03:22.509Z,4.18
2022-11-03T00:04:22.237Z,4.17
2022-11-03T00:05:22.226Z,4.21
2022-11-03T00:06:22.718Z,4.21
2022-11-03T00:07:22.449Z,4.17
2022-11-03T00:08:22.442Z,4.15
2022-11-03T00:09:22.680Z,4.14
2022-11-03T00:10:22.403Z,4.14
2022-11-03T00:11:22.128Z,4.14
2022-11-03T00:12:22.628Z,4.1
2022-11-03T00:13:22.346Z,4.1
2022-11-03T00:14:22.332Z,4.07
2022-11-03T00:15:22.578Z,4.1
2022-11-03T00:16:22.435Z,4.11
2022-11-03T00:17:22.282Z,4.1
2022-11-03T00:18:22.555Z,4.14
2022-11-03T00:19:22.570Z,4.07
2022-11-03T00:20:22.498Z,4.1
2022-11-03T00:21:22.477Z,4.1
2022-11-03T00:22:21.955Z,4.14
2022-11-03T00:23:22.216Z,4.18
2022-11-03T00:24:22.438Z,4.29
2022-11-03T00:25:21.932Z,4.28
2022-11-03T00:26:22.142Z,4.28
2022-11-03T00:27:22.121Z,4.35
2022-11-03T00:28:22.360Z,4.44
2022-11-03T00:29:22.088Z,4.46
2022-11-03T00:30:22.074Z,4.44
2022-11-03T00:31:22.313Z,4.5
2022-11-03T00:32:22.346Z,4.5
2022-11-03T00:33:22.019Z,4.53
2022-11-03T00:34:22.357Z,4.53
2022-11-03T00:35:21.732Z,4.61
2022-11-03T00:36:21.983Z,4.61
2022-11-03T00:37:21.955Z,4.65
2022-11-03T00:38:21.936Z,4.68
2022-11-03T00:39:22.187Z,4.65
2022-11-03T00:40:22.168Z,4.61
2022-11-03T00:41:21.892Z,4.74
2022-11-03T00:42:21.616Z,4.65
2022-11-03T00:43:21.861Z,4.66
2022-11-03T00:44:22.115Z,4.69
2022-11-03T00:45:21.821Z,4.68
2022-11-03T00:46:22.066Z,4.69
2022-11-03T00:47:27.903Z,4.65
2022-11-03T00:48:22.032Z,4.72
2022-11-03T00:49:21.762Z,4.76
2022-11-03T00:50:22.026Z,4.75
2022-11-03T00:51:21.757Z,4.76
2022-11-03T00:52:21.965Z,4.68
2022-11-03T00:53:21.958Z,4.66
2022-11-03T00:54:21.962Z,4.69
2022-11-03T00:55:21.694Z,4.69
2022-11-03T00:56:21.926Z,4.76
2022-11-03T00:57:21.889Z,4.84
2022-11-03T00:58:21.877Z,4.76
2022-11-03T00:59:21.860Z,4.78
2022-11-03T01:00:21.337Z,4.78
2022-11-03T01:01:22.036Z,4.75
2022-11-03T01:02:21.901Z,4.84
2022-11-03T01:03:21.582Z,4.83
2022-11-03T01:04:21.773Z,4.79
2022-11-03T01:05:21.241Z,4.83
2022-11-03T01:06:21.512Z,4.85
2022-11-03T01:07:21.217Z,4.85
2022-11-03T01:08:25.173Z,4.85
2022-11-03T01:09:21.441Z,4.87
2022-11-03T01:10:21.415Z,4.84
2022-11-03T01:11:21.671Z,4.87
2022-11-03T01:12:21.410Z,4.87
2022-11-03T01:13:21.116Z,4.85
2022-11-03T01:14:21.609Z,4.95
2022-11-03T01:15:21.590Z,4.95
2022-11-03T01:16:21.582Z,4.94
2022-11-03T01:17:21.306Z,4.88
2022-11-03T01:18:21.542Z,4.87
2022-11-03T01:19:21.605Z,4.84
2022-11-03T01:20:21.009Z,4.91
2022-11-03T01:21:21.488Z,4.74
2022-11-03T01:22:21.505Z,4.87
2022-11-03T01:23:21.207Z,4.74
2022-11-03T01:24:20.943Z,4.66
2022-11-03T01:25:21.183Z,4.76
2022-11-03T01:26:20.904Z,4.72
2022-11-03T01:27:21.390Z,4.69
2022-11-03T01:28:21.378Z,4.71
2022-11-03T01:29:21.374Z,4.66
2022-11-03T01:30:21.104Z,4.66
2022-11-03T01:31:21.075Z,4.57
2022-11-03T01:32:21.320Z,4.58
2022-11-03T01:33:21.046Z,4.64
2022-11-03T01:34:21.294Z,4.56
2022-11-03T01:35:21.052Z,4.61
2022-11-03T01:36:20.992Z,4.47
2022-11-03T01:37:21.240Z,4.5
2022-11-03T01:39:21.262Z,4.56
2022-11-03T01:40:21.772Z,4.47
2022-11-03T01:41:21.736Z,4.46
2022-11-03T01:42:21.723Z,4.42
2022-11-03T01:43:21.458Z,4.46
2022-11-03T01:44:21.444Z,4.38
2022-11-03T01:45:21.415Z,4.47
2022-11-03T01:46:21.652Z,4.39
2022-11-03T01:47:21.383Z,4.39
2022-11-03T01:48:21.382Z,4.42
2022-11-03T01:49:21.354Z,4.32
2022-11-03T01:50:21.605Z,4.28
2022-11-03T01:51:21.632Z,4.29
2022-11-03T01:52:21.356Z,4.24
2022-11-03T01:53:21.283Z,4.35
2022-11-03T01:54:21.545Z,4.28
2022-11-03T01:55:21.010Z,4.29
2022-11-03T01:56:21.504Z,4.3
2022-11-03T01:57:21.480Z,4.21
2022-11-03T01:58:21.458Z,4.26
2022-11-03T01:59:21.439Z,4.2
2022-11-03T02:00:21.169Z,4.2
2022-11-03T02:01:21.980Z,4.21
2022-11-03T02:02:21.730Z,4.2
2022-11-03T02:03:21.411Z,4.15
2022-11-03T02:04:21.363Z,4.17
2022-11-03T02:05:21.372Z,4.11
2022-11-03T02:06:21.329Z,4.18
2022-11-03T02:07:21.351Z,4.17
2022-11-03T02:08:21.039Z,4.17
2022-11-03T02:09:21.023Z,4.2
2022-11-03T02:10:21.289Z,4.29
2022-11-03T02:11:20.981Z,4.18
2022-11-03T02:12:20.969Z,4.32
2022-11-03T02:13:20.706Z,4.24
2022-11-03T02:14:21.192Z,4.14
2022-11-03T02:15:20.658Z,4.22
2022-11-03T02:16:20.897Z,4.2
2022-11-03T02:17:20.634Z,4.17
2022-11-03T02:18:21.126Z,4.2
2022-11-03T02:19:21.115Z,4.12
2022-11-03T02:20:20.572Z,4.17
2022-11-03T02:21:20.821Z,4.14
2022-11-03T02:22:20.804Z,4.18
2022-11-03T02:23:21.142Z,4.17
2022-11-03T02:24:20.763Z,4.17
2022-11-03T02:25:20.493Z,4.2
2022-11-03T02:26:20.764Z,4.15
2022-11-03T02:27:20.978Z,4.07
2022-11-03T02:28:20.713Z,3.94
2022-11-03T02:29:20.427Z,4.07
2022-11-03T02:30:20.677Z,4.03
2022-11-03T02:31:20.681Z,3.93
2022-11-03T02:32:20.888Z,4.02
2022-11-03T02:33:20.881Z,3.97
2022-11-03T02:34:20.854Z,3.96
2022-11-03T02:35:20.843Z,4.03
2022-11-03T02:36:20.575Z,3.97
2022-11-03T02:37:20.568Z,3.99
2022-11-03T02:38:20.795Z,3.99
2022-11-03T02:39:20.827Z,3.96
2022-11-03T02:40:20.500Z,4
2022-11-03T02:41:20.233Z,3.96
2022-11-03T02:42:20.742Z,3.92
2022-11-03T02:43:20.711Z,3.97
2022-11-03T02:44:20.177Z,3.97
2022-11-03T02:45:22.230Z,3.93
2022-11-03T02:46:20.404Z,4.08
2022-11-03T02:47:20.383Z,3.97
2022-11-03T02:48:20.624Z,3.92
2022-11-03T02:49:20.352Z,3.97
2022-11-03T02:50:20.593Z,3.99
2022-11-03T02:51:20.317Z,4.04
2022-11-03T02:52:20.297Z,4.1
2022-11-03T02:53:20.037Z,4.1
2022-11-03T02:54:20.269Z,4.08
2022-11-03T02:55:20.296Z,4.08
2022-11-03T02:56:20.480Z,4.11
2022-11-03T02:57:20.207Z,4.04
2022-11-03T02:58:20.483Z,4.1
2022-11-03T02:59:19.932Z,4.1
2022-11-03T03:00:20.434Z,4.1
2022-11-03T03:01:20.880Z,4.15
2022-11-03T03:02:20.175Z,4.15
2022-11-03T03:03:20.116Z,4.22
2022-11-03T03:04:20.097Z,4.2
2022-11-03T03:05:20.357Z,4.21
2022-11-03T03:06:20.331Z,4.17
2022-11-03T03:07:20.326Z,4.29
2022-11-03T03:08:20.027Z,4.22
2022-11-03T03:09:20.009Z,4.18
2022-11-03T03:10:20.001Z,4.21
2022-11-03T03:11:20.336Z,4.12
2022-11-03T03:12:19.962Z,4.18
2022-11-03T03:13:19.693Z,4.14
2022-11-03T03:14:19.970Z,4.12
2022-11-03T03:15:19.915Z,4.08
2022-11-03T03:16:19.906Z,4.18
2022-11-03T03:17:19.890Z,4.14
2022-11-03T03:18:19.867Z,4.18
2022-11-03T03:19:19.847Z,4.08
2022-11-03T03:20:19.829Z,4.08
2022-11-03T03:21:20.065Z,4.12
2022-11-03T03:22:19.804Z,4.1
2022-11-03T03:23:20.997Z,4.12
2022-11-03T03:24:20.016Z,4.03
2022-11-03T03:25:19.499Z,4.11
2022-11-03T03:26:19.735Z,4.1
2022-11-03T03:27:20.015Z,4.08
2022-11-03T03:28:19.434Z,4.11
2022-11-03T03:29:19.939Z,4.08
2022-11-03T03:30:19.691Z,4.11
2022-11-03T03:31:19.384Z,4.15
2022-11-03T03:32:19.882Z,4.14
2022-11-03T03:49:26.203Z,4.28
2022-11-03T03:50:25.851Z,4.28
2022-11-03T03:51:25.828Z,4.2
2022-11-03T03:52:25.828Z,4.15
2022-11-03T03:53:26.050Z,4.14
2022-11-03T03:54:25.770Z,4.08
2022-11-03T03:55:26.602Z,4.12
2022-11-03T03:56:25.733Z,4.15
2022-11-03T03:57:25.976Z,4.15
2022-11-03T03:58:25.706Z,4.07
2022-11-03T03:59:25.678Z,3.94
2022-11-03T04:00:25.924Z,4.04
2022-11-03T04:01:26.197Z,4
2022-11-03T04:02:25.874Z,3.92
2022-11-03T04:03:25.614Z,4.04
2022-11-03T04:04:25.857Z,3.93
2022-11-03T04:05:25.904Z,4.02
2022-11-03T04:06:25.825Z,3.93
2022-11-03T04:07:25.537Z,4
2022-11-03T04:08:25.521Z,3.97
2022-11-03T04:09:26.435Z,3.97
2022-11-03T04:10:25.909Z,3.99
2022-11-03T04:11:26.385Z,4.03
2022-11-03T04:12:26.108Z,4
2022-11-03T04:13:26.101Z,4
2022-11-03T04:14:25.825Z,3.96
2022-11-03T04:15:26.056Z,4.04
2022-11-03T04:16:26.300Z,3.97
2022-11-03T04:17:26.284Z,4.04
2022-11-03T04:18:26.013Z,4.02
2022-11-03T04:19:26.076Z,3.93
2022-11-03T04:20:25.975Z,4.04
2022-11-03T04:21:26.298Z,3.97
2022-11-03T04:22:26.223Z,3.92
2022-11-03T04:23:25.659Z,3.99
2022-11-03T04:24:26.168Z,3.99
2022-11-03T04:25:25.890Z,4
2022-11-03T04:26:26.126Z,3.97
2022-11-03T04:27:26.100Z,4.02
2022-11-03T04:28:26.090Z,4.04
2022-11-03T04:29:26.083Z,4.04
2022-11-03T04:30:25.809Z,3.93
2022-11-03T04:31:26.041Z,3.97
2022-11-03T04:32:25.776Z,3.89
2022-11-03T04:33:25.760Z,3.97
2022-11-03T04:34:25.479Z,3.96
2022-11-03T04:35:25.726Z,3.9
2022-11-03T04:36:25.964Z,3.85
2022-11-03T04:37:26.015Z,3.99
2022-11-03T04:38:26.016Z,3.86
2022-11-03T04:39:25.652Z,3.86
2022-11-03T04:40:25.702Z,3.86
2022-11-03T04:41:25.523Z,3.86
2022-11-03T04:42:25.604Z,3.82
2022-11-03T04:43:25.594Z,3.81
2022-11-03T04:44:25.818Z,3.81
2022-11-03T04:45:25.296Z,3.75
2022-11-03T04:46:25.533Z,3.79
2022-11-03T04:47:25.780Z,3.81
2022-11-03T04:48:25.498Z,3.78
2022-11-03T04:49:25.480Z,3.71
2022-11-03T04:50:25.726Z,3.69
2022-11-03T04:51:25.708Z,3.72
2022-11-03T04:52:25.174Z,3.74
2022-11-03T04:53:25.754Z,3.67
2022-11-03T04:54:25.140Z,3.75
2022-11-03T04:55:25.639Z,3.76
2022-11-03T04:56:25.621Z,3.69
2022-11-03T04:57:25.615Z,3.69
2022-11-03T04:58:25.595Z,3.64
2022-11-03T04:59:25.313Z,3.61
2022-11-03T05:00:25.039Z,3.56
2022-11-03T05:01:29.273Z,3.57
2022-11-03T05:02:25.521Z,3.54
2022-11-03T05:03:25.250Z,3.53
2022-11-03T05:04:25.497Z,3.53
2022-11-03T05:05:25.228Z,3.53
2022-11-03T05:06:25.462Z,3.53
2022-11-03T05:07:25.183Z,3.63
2022-11-03T05:08:24.914Z,3.63
2022-11-03T05:09:25.484Z,3.63
2022-11-03T05:10:24.869Z,3.69
2022-11-03T05:11:25.365Z,3.63
2022-11-03T05:12:25.344Z,3.64
2022-11-03T05:13:25.074Z,3.67
2022-11-03T05:14:24.806Z,3.75
2022-11-03T05:15:25.291Z,3.79
2022-11-03T05:16:25.022Z,3.74
2022-11-03T05:17:25.272Z,3.74
2022-11-03T05:18:24.995Z,3.76
2022-11-03T05:19:25.233Z,3.72
2022-11-03T05:20:25.210Z,3.72
2022-11-03T05:21:24.955Z,3.74
2022-11-03T05:22:25.186Z,3.84
2022-11-03T05:23:25.160Z,3.79
2022-11-03T05:24:24.888Z,3.81
2022-11-03T05:25:25.198Z,3.82
2022-11-03T05:26:24.850Z,3.9
2022-11-03T05:27:24.840Z,3.92
2022-11-03T05:28:24.825Z,3.85
2022-11-03T05:29:24.800Z,3.92
2022-11-03T05:30:24.528Z,3.89
2022-11-03T05:31:25.038Z,3.99
2022-11-03T05:32:25.025Z,3.92
2022-11-03T05:33:24.985Z,3.9
2022-11-03T05:34:24.466Z,3.93
2022-11-03T05:35:24.707Z,3.93
2022-11-03T05:36:24.427Z,4
2022-11-03T05:37:30.604Z,4.04
2022-11-03T05:38:24.649Z,4.08
2022-11-03T05:39:24.630Z,4.14
2022-11-03T05:40:24.624Z,4.14
2022-11-03T05:41:24.924Z,4.14
2022-11-03T05:42:24.616Z,4.18
2022-11-03T05:43:24.833Z,4.18
2022-11-03T05:44:24.300Z,4.18
2022-11-03T05:45:24.792Z,4.26
2022-11-03T05:46:24.518Z,4.26
2022-11-03T05:47:24.516Z,4.29
2022-11-03T05:48:24.737Z,4.29
2022-11-03T05:49:24.714Z,4.32
2022-11-03T05:50:24.214Z,4.44
2022-11-03T05:51:24.683Z,4.54
2022-11-03T05:52:24.677Z,4.5
2022-11-03T05:53:24.400Z,4.56
2022-11-03T05:54:24.801Z,4.58
2022-11-03T05:55:24.358Z,4.5
2022-11-03T05:56:24.344Z,4.46
2022-11-03T05:57:24.650Z,4.54
2022-11-03T05:58:24.329Z,4.54
2022-11-03T06:00:24.292Z,4.51
2022-11-03T06:01:24.488Z,4.54
2022-11-03T06:02:24.461Z,4.58
2022-11-03T06:03:24.484Z,4.58
2022-11-03T06:04:24.218Z,4.66
2022-11-03T06:05:24.456Z,4.66
2022-11-03T06:06:26.903Z,4.64
2022-11-03T06:07:24.429Z,4.79
2022-11-03T06:09:23.975Z,4.83
2022-11-03T06:10:24.493Z,4.74
2022-11-03T06:11:24.458Z,4.79
2022-11-03T06:12:24.451Z,4.9
2022-11-03T06:13:24.504Z,4.88
2022-11-03T06:14:27.854Z,4.83
2022-11-03T06:15:24.142Z,4.95
2022-11-03T06:16:24.377Z,4.98
2022-11-03T06:17:24.110Z,4.92
2022-11-03T06:18:24.081Z,5.08
2022-11-03T06:19:24.066Z,4.94
2022-11-03T06:20:24.143Z,4.97
2022-11-03T06:21:24.288Z,5.06
2022-11-03T06:22:24.019Z,5.08
2022-11-03T06:23:24.262Z,5.09
2022-11-03T06:24:23.981Z,5.16
2022-11-03T06:25:24.241Z,5.12
2022-11-03T06:26:24.205Z,5.15
2022-11-03T06:27:23.937Z,5.18
2022-11-03T06:28:23.938Z,5.12
2022-11-03T06:29:24.234Z,5.18
2022-11-03T06:30:23.894Z,5.16
2022-11-03T06:31:27.625Z,5.15
2022-11-03T06:32:24.127Z,5.2
2022-11-03T06:33:23.850Z,5.18
2022-11-03T06:34:23.824Z,5.24
2022-11-03T06:35:24.074Z,5.2
2022-11-03T06:36:23.797Z,5.21
2022-11-03T06:37:24.159Z,5.18
2022-11-03T06:38:23.882Z,5.27
2022-11-03T06:39:23.868Z,5.23
2022-11-03T06:40:23.851Z,5.23
2022-11-03T06:41:24.099Z,5.36
2022-11-03T06:42:25.608Z,5.39
2022-11-03T06:43:23.811Z,5.46
2022-11-03T06:44:23.794Z,5.42
2022-11-03T06:45:24.110Z,5.39
2022-11-03T06:46:23.764Z,5.44
2022-11-03T06:47:23.750Z,5.48
2022-11-03T06:48:23.989Z,5.57
2022-11-03T06:49:23.971Z,5.63
2022-11-03T06:50:23.686Z,5.57
2022-11-03T06:51:23.927Z,5.7
2022-11-03T06:52:23.919Z,5.77
2022-11-03T06:53:23.898Z,5.78
2022-11-03T06:54:23.628Z,5.81
2022-11-03T06:55:23.622Z,5.77
2022-11-03T06:56:23.605Z,5.88
2022-11-03T06:57:23.587Z,5.91
2022-11-03T06:58:23.564Z,5.95
2022-11-03T06:59:23.548Z,5.95
2022-11-03T07:00:44.828Z,6.03
2022-11-03T07:01:24.262Z,6.03
2022-11-03T07:02:23.775Z,6.07
2022-11-03T07:03:23.226Z,6.15
2022-11-03T07:04:23.717Z,6.2
2022-11-03T07:05:23.723Z,6.25
2022-11-03T07:06:23.440Z,6.28
2022-11-03T07:07:23.418Z,6.37
2022-11-03T07:08:23.413Z,6.4
2022-11-03T07:09:23.148Z,6.39
2022-11-03T07:10:23.380Z,6.44
2022-11-03T07:11:23.362Z,6.43
2022-11-03T07:12:23.598Z,6.52
2022-11-03T07:13:23.597Z,6.52
2022-11-03T07:14:23.313Z,6.49
2022-11-03T07:15:23.557Z,6.58
2022-11-03T07:16:24.119Z,6.54
2022-11-03T07:17:23.570Z,6.62
2022-11-03T07:18:23.249Z,6.58
2022-11-03T07:19:23.494Z,6.67
2022-11-03T07:20:23.481Z,6.67
2022-11-03T07:21:23.212Z,6.73
2022-11-03T07:22:22.942Z,6.7
2022-11-03T07:23:22.916Z,6.73
2022-11-03T07:24:23.453Z,6.76
2022-11-03T07:25:23.396Z,6.82
2022-11-03T07:26:23.382Z,6.83
2022-11-03T07:27:23.367Z,6.8
2022-11-03T07:28:23.103Z,6.79
2022-11-03T07:29:23.342Z,6.83
2022-11-03T07:30:22.813Z,6.91
2022-11-03T07:31:23.077Z,6.88
2022-11-03T07:32:23.083Z,6.93
2022-11-03T07:33:23.042Z,6.9
2022-11-03T07:34:23.268Z,6.91
2022-11-03T07:35:23.243Z,6.86
2022-11-03T07:36:23.243Z,6.9
2022-11-03T07:37:22.712Z,6.88
2022-11-03T07:38:22.689Z,6.91
2022-11-03T07:39:23.180Z,6.95
2022-11-03T07:40:22.915Z,6.98
2022-11-03T07:41:22.640Z,6.98
2022-11-03T07:42:23.166Z,7.05
2022-11-03T07:43:23.130Z,7
2022-11-03T07:44:23.841Z,7
2022-11-03T07:45:23.804Z,7.03
2022-11-03T07:46:23.796Z,7.04
2022-11-03T07:47:23.523Z,7.09
2022-11-03T07:48:23.825Z,7.08
2022-11-03T07:49:23.772Z,7.16
2022-11-03T07:50:23.476Z,7.11
2022-11-03T07:51:23.718Z,7.19
2022-11-03T07:52:23.712Z,7.18
2022-11-03T07:53:30.237Z,7.16
2022-11-03T07:54:23.422Z,7.22
2022-11-03T07:55:23.657Z,7.36
2022-11-03T07:56:23.700Z,7.33
2022-11-03T07:57:23.380Z,7.31
2022-11-03T07:58:23.613Z,7.41
2022-11-03T08:00:23.583Z,7.45
2022-11-03T08:01:23.542Z,7.56
2022-11-03T08:02:23.708Z,7.54
2022-11-03T08:03:23.548Z,7.55
2022-11-03T08:04:23.621Z,7.61
2022-11-03T08:05:24.797Z,7.63
2022-11-03T08:06:24.943Z,7.67
2022-11-03T08:07:23.222Z,7.73
2022-11-03T08:08:22.955Z,7.74
2022-11-03T08:09:22.945Z,7.78
2022-11-03T08:10:23.180Z,7.78
2022-11-03T08:11:29.294Z,7.77
2022-11-03T08:12:23.158Z,7.78
2022-11-03T08:13:23.148Z,7.83
2022-11-03T08:14:23.392Z,7.98
2022-11-03T08:15:23.367Z,7.95
2022-11-03T08:16:23.096Z,7.95
2022-11-03T08:17:23.393Z,7.99
2022-11-03T08:18:23.330Z,8.03
2022-11-03T08:19:23.314Z,8.06
2022-11-03T08:20:23.348Z,8.1
2022-11-03T08:21:23.052Z,8.14
2022-11-03T08:22:23.022Z,8.13
2022-11-03T08:23:32.179Z,8.17
2022-11-03T08:24:23.240Z,8.19
2022-11-03T08:25:23.228Z,8.16
2022-11-03T08:26:23.218Z,8.22
2022-11-03T08:27:23.211Z,8.28
2022-11-03T08:28:22.669Z,8.31
2022-11-03T08:29:22.920Z,8.31
2022-11-03T08:30:22.910Z,8.42
2022-11-03T08:31:22.897Z,8.28
2022-11-03T08:32:23.120Z,8.4
2022-11-03T08:33:23.336Z,8.44
2022-11-03T08:34:23.095Z,8.5
2022-11-03T08:35:23.096Z,8.49
2022-11-03T08:36:23.378Z,8.58
2022-11-03T08:37:23.094Z,8.61
2022-11-03T08:38:22.800Z,8.68
2022-11-03T08:39:22.787Z,8.61
2022-11-03T08:40:22.775Z,8.79
2022-11-03T08:41:23.010Z,8.71
2022-11-03T08:42:22.739Z,8.87
2022-11-03T08:43:22.973Z,8.95
2022-11-03T08:44:22.704Z,8.92
2022-11-03T08:45:22.694Z,8.85
2022-11-03T08:46:23.231Z,9.04
2022-11-03T08:47:22.660Z,9.04
2022-11-03T08:48:23.464Z,9.08
2022-11-03T08:49:23.456Z,9.17
2022-11-03T08:50:23.496Z,9.14
2022-11-03T08:51:23.429Z,9.19
2022-11-03T08:52:23.498Z,9.21
2022-11-03T08:53:23.430Z,9.39
2022-11-03T08:54:23.392Z,9.3
2022-11-03T08:55:23.629Z,9.5
2022-11-03T08:56:27.105Z,9.48
2022-11-03T08:57:23.613Z,9.47
2022-11-03T08:58:23.593Z,9.64
2022-11-03T08:59:23.578Z,9.55
2022-11-03T09:00:23.379Z,9.6
2022-11-03T09:01:23.847Z,9.74
2022-11-03T09:02:23.775Z,9.71
2022-11-03T09:03:23.498Z,9.82
2022-11-03T09:04:23.555Z,9.88
2022-11-03T09:05:23.238Z,9.9
2022-11-03T09:06:23.502Z,9.81
2022-11-03T09:07:24.185Z,9.96
2022-11-03T09:10:28.373Z,10
2022-11-03T09:11:22.179Z,10.05
2022-11-03T09:12:22.417Z,10.07
2022-11-03T09:13:22.160Z,10.07
2022-11-03T09:14:22.396Z,10.07
2022-11-03T09:15:22.117Z,10.1
2022-11-03T09:16:22.234Z,10
2022-11-03T09:17:22.362Z,10.07
2022-11-03T09:18:22.355Z,10.07
2022-11-03T09:19:22.076Z,10.07
2022-11-03T09:20:22.111Z,10.23
2022-11-03T09:21:22.065Z,10.15
2022-11-03T09:22:22.290Z,10.25
2022-11-03T09:23:21.761Z,10.2
2022-11-03T09:24:22.279Z,10.14
2022-11-03T09:25:22.250Z,10.17
2022-11-03T09:26:22.370Z,10.23
2022-11-03T09:27:22.230Z,10.26
2022-11-03T09:28:22.223Z,10.21
2022-11-03T09:29:21.942Z,10.26
2022-11-03T09:30:22.196Z,10.23
2022-11-03T09:31:22.408Z,10.21
2022-11-03T09:32:27.923Z,10.29
2022-11-03T09:33:22.355Z,10.31
2022-11-03T09:34:22.372Z,10.38
2022-11-03T09:35:22.312Z,10.42
2022-11-03T09:36:22.573Z,10.33
2022-11-03T09:37:22.317Z,10.39
2022-11-03T09:38:22.284Z,10.46
2022-11-03T09:39:22.532Z,10.44
2022-11-03T09:40:22.262Z,10.55
2022-11-03T09:41:59.376Z,10.55
2022-11-03T09:42:22.257Z,10.57
2022-11-03T09:43:22.217Z,10.52
2022-11-03T09:44:22.461Z,10.58
2022-11-03T09:45:22.456Z,10.73
2022-11-03T09:46:22.192Z,10.63
2022-11-03T09:47:22.422Z,10.67
2022-11-03T09:48:22.164Z,10.63
2022-11-03T09:49:22.166Z,10.63
2022-11-03T09:50:22.131Z,10.73
2022-11-03T09:51:22.103Z,10.79
2022-11-03T09:52:22.344Z,10.77
2022-11-03T09:53:22.094Z,10.85
2022-11-03T09:54:22.119Z,10.88
2022-11-03T09:55:22.312Z,11.05
2022-11-03T09:56:21.797Z,11.06
2022-11-03T09:57:22.337Z,11.1
2022-11-03T09:58:22.296Z,11.1
2022-11-03T09:59:22.263Z,11.09
2022-11-03T10:00:22.093Z,11.13
2022-11-03T10:01:22.628Z,11.15
2022-11-03T10:02:22.448Z,11.23
2022-11-03T10:03:21.962Z,11.31
2022-11-03T10:04:21.949Z,11.34
2022-11-03T10:05:22.217Z,11.3
2022-11-03T10:06:22.207Z,11.46
2022-11-03T10:07:21.662Z,11.45
2022-11-03T10:08:26.992Z,11.51
2022-11-03T10:09:21.902Z,11.52
2022-11-03T10:10:22.338Z,11.59
2022-11-03T10:11:22.125Z,11.66
2022-11-03T10:12:21.854Z,11.76
2022-11-03T10:13:21.903Z,11.64
2022-11-03T10:14:22.165Z,11.76
2022-11-03T10:15:21.846Z,11.91
2022-11-03T10:16:22.092Z,11.97
2022-11-03T10:17:21.811Z,12.05
2022-11-03T10:18:21.810Z,12.13
2022-11-03T10:19:22.035Z,12.15
2022-11-03T10:20:21.543Z,12.23
2022-11-03T10:21:21.768Z,12.22
2022-11-03T10:22:22.027Z,12.29
2022-11-03T10:23:21.747Z,12.28
2022-11-03T10:24:21.994Z,12.26
2022-11-03T10:25:21.970Z,12.44
2022-11-03T10:26:21.984Z,12.4
2022-11-03T10:27:21.716Z,12.51
2022-11-03T10:28:21.700Z,12.61
2022-11-03T10:29:21.812Z,12.61
2022-11-03T10:30:21.740Z,12.58
2022-11-03T10:31:21.648Z,12.66
2022-11-03T10:32:21.895Z,12.69
2022-11-03T10:33:21.898Z,12.65
2022-11-03T10:34:21.872Z,12.55
2022-11-03T10:35:21.615Z,12.55
2022-11-03T10:36:21.615Z,12.62
2022-11-03T10:37:21.866Z,12.7
2022-11-03T10:38:21.612Z,12.65
2022-11-03T10:39:21.849Z,12.66
2022-11-03T10:40:51.118Z,12.7
2022-11-03T10:41:21.581Z,12.78
2022-11-03T10:42:21.563Z,12.83
2022-11-03T10:43:21.773Z,12.8
2022-11-03T10:44:21.259Z,12.86
2022-11-03T10:45:21.589Z,12.92
2022-11-03T10:46:57.189Z,12.92
2022-11-03T10:47:21.237Z,12.95
2022-11-03T10:48:21.725Z,12.94
2022-11-03T10:49:22.314Z,12.91
2022-11-03T10:50:21.209Z,12.96
2022-11-03T10:51:21.430Z,13.06
2022-11-03T10:52:21.379Z,13.06
2022-11-03T10:53:21.851Z,12.96
2022-11-03T10:54:21.277Z,13.09
2022-11-03T10:55:28.079Z,13.1
2022-11-03T10:56:21.138Z,13.14
2022-11-03T10:57:21.633Z,13.21
2022-11-03T10:58:21.117Z,13.16
2022-11-03T10:59:21.633Z,13.32
2022-11-03T11:00:21.731Z,13.31
2022-11-03T11:01:22.044Z,13.28
2022-11-03T11:02:21.650Z,13.32
2022-11-03T11:03:25.517Z,13.37
2022-11-03T11:04:21.495Z,13.31
2022-11-03T11:05:21.329Z,13.35
2022-11-03T11:06:21.302Z,13.35
2022-11-03T11:07:21.545Z,13.37
2022-11-03T11:08:21.839Z,13.45
2022-11-03T11:09:21.264Z,13.47
2022-11-03T11:10:21.244Z,13.45
2022-11-03T11:11:21.232Z,13.44
2022-11-03T11:12:20.977Z,13.42
2022-11-03T11:13:21.560Z,13.39
2022-11-03T11:14:20.950Z,13.31
2022-11-03T11:15:21.451Z,13.44
2022-11-03T11:16:21.443Z,13.47
2022-11-03T11:17:21.562Z,13.44
2022-11-03T11:19:21.411Z,13.47
2022-11-03T11:20:20.899Z,13.47
2022-11-03T11:21:21.389Z,13.47
2022-11-03T11:22:21.165Z,13.5
2022-11-03T11:23:21.111Z,13.42
2022-11-03T11:24:21.363Z,13.47
2022-11-03T11:25:21.099Z,13.48
2022-11-03T11:26:21.339Z,13.47
2022-11-03T11:27:21.077Z,13.37
2022-11-03T11:28:21.071Z,13.48
2022-11-03T11:29:21.312Z,13.45
2022-11-03T11:30:21.053Z,13.55
2022-11-03T11:31:21.328Z,13.45
2022-11-03T11:32:21.300Z,13.47
2022-11-03T11:33:21.368Z,13.5
2022-11-03T11:34:21.052Z,13.53
2022-11-03T11:35:21.008Z,13.45
2022-11-03T11:36:20.740Z,13.51
2022-11-03T11:37:21.237Z,13.48
2022-11-03T11:38:21.221Z,13.44
2022-11-03T11:39:21.216Z,13.28
2022-11-03T11:40:21.205Z,13.31
2022-11-03T11:41:20.950Z,13.36
2022-11-03T11:42:21.452Z,13.42
2022-11-03T11:43:21.183Z,13.45
2022-11-03T11:44:20.911Z,13.39
2022-11-03T11:45:20.903Z,13.4
2022-11-03T11:46:20.889Z,13.39
2022-11-03T11:47:21.135Z,13.35
2022-11-03T11:48:23.756Z,13.47
2022-11-03T11:49:20.888Z,13.44
2022-11-03T11:50:20.884Z,13.51
2022-11-03T11:51:20.862Z,13.48
2022-11-03T11:52:23.847Z,13.45
2022-11-03T11:53:21.080Z,13.53
2022-11-03T11:54:22.460Z,13.45
2022-11-03T11:55:20.904Z,13.45
2022-11-03T11:56:20.803Z,13.45
2022-11-03T11:57:20.785Z,13.47
2022-11-03T11:58:21.043Z,13.32
2022-11-03T11:59:28.463Z,13.37
2022-11-03T12:00:21.016Z,13.36
2022-11-03T12:01:21.175Z,13.42
2022-11-03T12:02:20.990Z,13.47
2022-11-03T12:03:21.200Z,13.44
2022-11-03T12:04:21.135Z,13.47
2022-11-03T12:05:20.486Z,13.45
2022-11-03T12:06:20.725Z,13.4
2022-11-03T12:07:20.690Z,13.47
2022-11-03T12:08:20.935Z,13.53
2022-11-03T12:09:20.670Z,13.42
2022-11-03T12:10:20.910Z,13.48
2022-11-03T12:11:20.990Z,13.42
2022-11-03T12:12:20.384Z,13.42
2022-11-03T12:13:20.629Z,13.48
2022-11-03T12:14:20.871Z,13.48
2022-11-03T12:15:20.867Z,13.36
2022-11-03T12:16:20.348Z,13.47
2022-11-03T12:17:20.603Z,13.37
2022-11-03T12:18:21.033Z,13.47
2022-11-03T12:19:20.587Z,13.47
2022-11-03T12:20:20.584Z,13.48
2022-11-03T12:21:20.322Z,13.55
2022-11-03T12:22:20.632Z,13.55
2022-11-03T12:23:20.537Z,13.53
2022-11-03T12:24:20.799Z,13.53
2022-11-03T12:25:20.763Z,13.48
2022-11-03T12:26:20.770Z,13.55
2022-11-03T12:27:20.746Z,13.47
2022-11-03T12:28:20.736Z,13.47
2022-11-03T12:29:20.474Z,13.53
2022-11-03T12:30:20.719Z,13.48
2022-11-03T12:31:20.456Z,13.48
2022-11-03T12:32:38.368Z,13.4
2022-11-03T12:33:20.434Z,13.39
2022-11-03T12:34:20.429Z,13.37
2022-11-03T12:35:20.416Z,13.29
2022-11-03T12:36:20.437Z,13.31
2022-11-03T12:37:20.683Z,13.25
2022-11-03T12:38:20.673Z,13.21
2022-11-03T12:39:20.377Z,13.21
2022-11-03T12:40:20.122Z,13.13
2022-11-03T12:41:20.615Z,13.09
2022-11-03T12:42:20.355Z,13.09
2022-11-03T12:43:20.354Z,13.13
2022-11-03T12:44:20.629Z,13.07
2022-11-03T12:45:20.417Z,13.1
2022-11-03T12:46:20.662Z,13.14
2022-11-03T12:47:20.662Z,13.16
2022-11-03T12:48:20.643Z,13.07
2022-11-03T12:49:20.497Z,13.11
2022-11-03T12:50:20.373Z,13.03
2022-11-03T12:51:20.612Z,12.95
2022-11-03T12:52:20.380Z,12.96
2022-11-03T12:53:20.619Z,12.94
2022-11-03T12:54:20.607Z,12.94
2022-11-03T12:55:20.759Z,12.91
2022-11-03T12:56:20.569Z,12.89
2022-11-03T12:57:20.307Z,12.88
2022-11-03T12:58:20.040Z,12.88
2022-11-03T12:59:20.530Z,12.89
2022-11-03T13:00:20.019Z,12.91
2022-11-03T13:01:20.810Z,12.92
2022-11-03T13:02:21.082Z,12.96
2022-11-03T13:03:20.237Z,12.94
2022-11-03T13:04:20.502Z,12.99
2022-11-03T13:05:20.225Z,13.01
2022-11-03T13:06:20.210Z,13.07
2022-11-03T13:07:34.692Z,13.03
2022-11-03T13:08:19.929Z,12.96
2022-11-03T13:09:19.948Z,12.98
2022-11-03T13:10:20.457Z,13.06
2022-11-03T13:11:19.909Z,13.03
2022-11-03T13:12:20.158Z,13.06
2022-11-03T13:13:20.397Z,12.95
2022-11-03T13:14:20.133Z,12.98
2022-11-03T13:15:20.381Z,12.88
2022-11-03T13:16:20.113Z,12.81
2022-11-03T13:17:20.105Z,12.74
2022-11-03T13:18:19.835Z,12.69
2022-11-03T13:19:20.081Z,12.59
2022-11-03T13:20:19.891Z,12.52
2022-11-03T13:21:20.066Z,12.44
2022-11-03T13:22:20.051Z,12.33
2022-11-03T13:23:25.565Z,12.34
2022-11-03T13:24:20.031Z,12.29
2022-11-03T13:25:20.286Z,12.18
2022-11-03T13:26:20.294Z,12.07
2022-11-03T13:27:20.035Z,12.04
2022-11-03T13:28:20.263Z,11.94
2022-11-03T13:29:20.237Z,12.01
2022-11-03T13:30:20.228Z,11.91
2022-11-03T13:31:19.959Z,11.84
2022-11-03T13:32:20.206Z,11.82
2022-11-03T13:33:20.192Z,11.71
2022-11-03T13:34:20.184Z,11.67
2022-11-03T13:35:19.918Z,11.64